Webbville, Kentucky
Current Conditions -  °F | °C
As of 10:51 PM on Tuesday 21 Oct 2014 (Local Time) from KHTS Reporting Station
Scattered Clouds Scattered Clouds  
Wind Chill: 45°   Ceiling: Unl
Heat Index: 45°   Visibility: 10mi
Dew Point: 42°   Wind: 3mph
Humidity: 90%   Direction: 310°NW
Pressure: 30.13"   Gusts: NA
Location:  38.18°N, 82.87°W
Report Text: KHTS 220251Z 31003KT 10SM FEW023 FEW038 SCT055 07/06 A3013 RMK AO2 SLP202 60000 T00720056 51018
Loading
Personal Weather Stations






























Interactive Weather Map
Tropical Storm Tracking
New forecast layout! Learn more

10-Day Weather Forecast

Advertisements
Track Severe Weather on mobile